Bookmark and Share
Track history (hours):
 

Albelo Primero

Last reported at 2014-Feb-09 09:33 UTC. Time now 2014-Apr-24 03:54 UTC.
Position N 51°35' W 009°57'.
Warning: this ship's position is months out of date.

Length 32 m; draft 3.5 m.

Type: Fishing. MMSI: 225360000.

NotesDate/timePositionNaut miles runAvg speedWind from/ knotsBaromVisibWave heightAir tempDewpointWater temp
2014-Feb-09 09:33N 51°35' W 009°57'4 4.4
2014-Feb-09 08:32N 51°39' W 009°54'0 0.0
2014-Feb-09 07:32N 51°39' W 009°54'0 0.0
2014-Feb-09 06:32N 51°39' W 009°54'0 0.0
2014-Feb-09 05:32N 51°39' W 009°54'0 0.0
2014-Feb-09 04:32N 51°39' W 009°54'0 0.0
2014-Feb-09 03:32N 51°39' W 009°54'0 0.0
2014-Feb-09 02:32N 51°39' W 009°54'0 0.0
2014-Feb-09 01:32N 51°39' W 009°54'0 0.0
2014-Feb-09 00:32N 51°39' W 009°54'0 0.0
2014-Feb-08 23:33N 51°39' W 009°54'0 0.0
2014-Feb-08 22:33N 51°39' W 009°54'0 0.0
2014-Feb-08 21:33N 51°39' W 009°54'0 0.0
2014-Feb-08 20:33N 51°39' W 009°54'0 0.0
2014-Feb-08 19:33N 51°39' W 009°54'0 0.0
2014-Feb-08 18:31N 51°39' W 009°54'0 0.0
2014-Feb-08 17:33N 51°39' W 009°54'0 0.0
2014-Feb-08 16:33N 51°39' W 009°54'0 0.0
2014-Feb-08 15:32N 51°39' W 009°54'0 0.0
2014-Feb-08 14:33N 51°39' W 009°54'0 0.0
2014-Feb-08 13:33N 51°39' W 009°54'0 0.0
2014-Feb-08 12:32N 51°39' W 009°54'0 0.0
2014-Feb-08 11:33N 51°39' W 009°54'0 0.0
2014-Feb-08 10:33N 51°39' W 009°54'0 0.0
2014-Feb-08 09:32N 51°39' W 009°54'0 0.1
2014-Feb-08 08:33N 51°39' W 009°54'0 0.0
2014-Feb-08 07:33N 51°39' W 009°54'0 0.0
2014-Feb-08 05:33N 51°39' W 009°54'0 0.0
2014-Feb-08 04:33N 51°39' W 009°54'0 0.0
2014-Feb-08 03:33N 51°39' W 009°54'0 0.0
2014-Feb-08 02:33N 51°39' W 009°54'0 0.0
2014-Feb-08 01:33N 51°39' W 009°54'0 0.0
2014-Feb-08 00:33N 51°39' W 009°54'0 0.0
2014-Feb-07 23:33N 51°39' W 009°54'0 0.0
2014-Feb-07 22:33N 51°39' W 009°54'0 0.0
2014-Feb-07 21:33N 51°39' W 009°54'0 0.0
2014-Feb-07 20:33N 51°39' W 009°54'0 0.1
2014-Feb-07 19:32N 51°39' W 009°54'9 9.1
2014-Feb-07 18:33N 51°31' W 010°01'2 0.0
2014-Feb-05 16:05N 51°31' W 009°58'5 9.0
2014-Feb-05 15:33N 51°36' W 009°56'3 3.3
2014-Feb-05 14:33N 51°39' W 009°54'0 0.0
2014-Feb-05 13:33N 51°39' W 009°54'0 0.0
2014-Feb-05 12:33N 51°39' W 009°54'0 0.0
2014-Feb-05 11:33N 51°39' W 009°54'0 0.0
2014-Feb-05 10:32N 51°39' W 009°54'0 0.0
2014-Feb-05 09:32N 51°39' W 009°54'0 0.0
2014-Feb-05 08:32N 51°39' W 009°54'0 0.0
2014-Feb-05 07:30N 51°39' W 009°54'0 0.0
2014-Feb-05 06:33N 51°39' W 009°54'0 0.0
2014-Feb-05 05:33N 51°39' W 009°54'0 0.0
2014-Feb-05 04:33N 51°39' W 009°54'0 0.0
2014-Feb-05 03:33N 51°39' W 009°54'0 0.0
2014-Feb-05 02:32N 51°39' W 009°54'0 0.0
2014-Feb-05 01:32N 51°39' W 009°54'0 0.0
2014-Feb-05 00:32N 51°39' W 009°54'0 0.0
2014-Feb-04 23:32N 51°39' W 009°54'0 0.0
2014-Feb-04 22:31N 51°39' W 009°54'0 0.0
2014-Feb-04 21:33N 51°39' W 009°54'0 0.0
2014-Feb-04 20:33N 51°39' W 009°54'0 0.0
2014-Feb-04 19:33N 51°39' W 009°54'0 0.0
2014-Feb-04 18:33N 51°39' W 009°54'0 0.0
2014-Feb-04 17:33N 51°39' W 009°54'0 0.0
2014-Feb-04 16:33N 51°39' W 009°54'0 0.0
2014-Feb-04 15:33N 51°39' W 009°54'1 0.5
2014-Feb-04 14:33N 51°38' W 009°54'10 9.5
2014-Feb-04 13:33N 51°29' W 009°58'1110.6
2014-Feb-04 12:32N 51°19' W 010°02'  

Dump ship's entire track history

sailing weather and tide predictions

Albelo Primero — ECMU — position and weather